Time,TemperatureF,DewpointF,PressureIn,WindDirection,WindDirectionDegrees,WindSpeedMPH,WindSpeedGustMPH,Humidity,HourlyPrecipIn,Conditions,Clouds,dailyrainin,SoftwareType,DateUTC
2013-03-27 00:00:00,47.2,37.2,29.61,North,0,0.0,0.0,68,0.00,,,0.00,WUHU216HW,2013-03-27 07:00:00,
2013-03-27 00:05:00,47.0,37.0,29.61,North,0,0.0,0.0,68,0.00,,,0.00,WUHU216HW,2013-03-27 07:05:00,
2013-03-27 00:10:00,47.0,37.0,29.61,North,0,0.0,0.0,68,0.00,,,0.00,WUHU216HW,2013-03-27 07:10:00,
2013-03-27 00:15:00,46.8,36.8,29.61,North,0,0.0,0.0,68,0.00,,,0.00,WUHU216HW,2013-03-27 07:15:00,
2013-03-27 00:20:00,46.8,36.8,29.61,North,0,0.0,0.0,68,0.00,,,0.00,WUHU216HW,2013-03-27 07:20:00,
2013-03-27 00:25:00,46.6,36.6,29.61,North,0,0.0,0.0,68,0.00,,,0.00,WUHU216HW,2013-03-27 07:25:00,
2013-03-27 00:30:00,46.6,37.0,29.61,North,0,0.0,0.0,69,0.00,,,0.00,WUHU216HW,2013-03-27 07:30:00,
2013-03-27 00:35:00,46.8,37.2,29.61,North,0,0.0,0.0,69,0.00,,,0.00,WUHU216HW,2013-03-27 07:35:00,
2013-03-27 00:40:00,46.8,37.2,29.61,North,0,0.0,0.0,69,0.00,,,0.00,WUHU216HW,2013-03-27 07:40:00,
2013-03-27 00:45:00,46.6,37.0,29.61,North,0,0.0,0.0,69,0.00,,,0.00,WUHU216HW,2013-03-27 07:45:00,
2013-03-27 00:50:00,46.6,37.0,29.61,North,0,0.0,0.0,69,0.00,,,0.00,WUHU216HW,2013-03-27 07:50:00,
2013-03-27 00:55:00,46.4,36.9,29.61,North,0,0.0,0.0,69,0.00,,,0.00,WUHU216HW,2013-03-27 07:55:00,
2013-03-27 01:00:00,46.4,36.9,29.61,North,0,0.0,0.0,69,0.00,,,0.00,WUHU216HW,2013-03-27 08:00:00,
2013-03-27 01:05:00,46.4,36.9,29.61,North,0,0.0,0.0,69,0.00,,,0.00,WUHU216HW,2013-03-27 08:05:00,
2013-03-27 01:10:00,46.3,37.1,29.61,North,0,0.0,0.0,70,0.00,,,0.00,WUHU216HW,2013-03-27 08:10:00,
2013-03-27 01:15:00,46.1,36.9,29.61,North,0,0.0,0.0,70,0.00,,,0.00,WUHU216HW,2013-03-27 08:15:00,
2013-03-27 01:20:00,46.1,36.9,29.61,North,0,0.0,0.0,70,0.00,,,0.00,WUHU216HW,2013-03-27 08:20:00,
2013-03-27 01:25:00,46.1,37.3,29.61,North,0,0.0,0.0,71,0.00,,,0.00,WUHU216HW,2013-03-27 08:25:00,
2013-03-27 01:30:00,45.9,37.1,29.61,North,0,0.0,0.0,71,0.00,,,0.00,WUHU216HW,2013-03-27 08:30:00,
2013-03-27 01:35:00,45.9,37.1,29.61,North,0,0.0,0.0,71,0.00,,,0.00,WUHU216HW,2013-03-27 08:35:00,
2013-03-27 01:40:00,45.9,37.1,29.61,North,0,0.0,0.0,71,0.00,,,0.00,WUHU216HW,2013-03-27 08:40:00,
2013-03-27 01:45:00,45.7,37.3,29.61,North,0,0.0,0.0,72,0.00,,,0.00,WUHU216HW,2013-03-27 08:45:00,
2013-03-27 01:50:00,45.7,37.3,29.61,North,0,0.0,0.0,72,0.00,,,0.00,WUHU216HW,2013-03-27 08:50:00,
2013-03-27 01:55:00,45.7,37.3,29.61,North,0,0.0,0.0,72,0.00,,,0.00,WUHU216HW,2013-03-27 08:55:00,
2013-03-27 02:00:00,45.7,37.3,29.61,North,0,0.0,0.0,72,0.00,,,0.00,WUHU216HW,2013-03-27 09:00:00,
2013-03-27 02:05:00,45.7,37.3,29.61,North,0,0.0,0.0,72,0.00,,,0.00,WUHU216HW,2013-03-27 09:05:00,
2013-03-27 02:10:00,45.5,37.1,29.61,North,0,0.0,0.0,72,0.00,,,0.00,WUHU216HW,2013-03-27 09:10:00,
2013-03-27 02:15:00,45.4,36.9,29.61,North,0,0.0,0.0,72,0.00,,,0.00,WUHU216HW,2013-03-27 09:15:00,
2013-03-27 02:20:00,45.4,36.9,29.60,North,0,0.0,0.0,72,0.00,,,0.00,WUHU216HW,2013-03-27 09:20:00,
2013-03-27 02:25:00,45.2,36.7,29.60,North,0,0.0,0.0,72,0.00,,,0.00,WUHU216HW,2013-03-27 09:25:00,
2013-03-27 02:30:00,45.2,36.7,29.60,North,0,0.0,0.0,72,0.00,,,0.00,WUHU216HW,2013-03-27 09:30:00,
2013-03-27 02:35:00,45.0,36.8,29.60,North,0,0.0,0.0,73,0.00,,,0.00,WUHU216HW,2013-03-27 09:35:00,
2013-03-27 02:40:00,45.0,36.8,29.60,North,0,0.0,0.0,73,0.00,,,0.00,WUHU216HW,2013-03-27 09:40:00,
2013-03-27 02:45:00,45.0,36.8,29.60,North,0,0.0,0.0,73,0.00,,,0.00,WUHU216HW,2013-03-27 09:45:00,
2013-03-27 02:50:00,45.0,36.8,29.60,North,0,0.0,0.0,73,0.00,,,0.00,WUHU216HW,2013-03-27 09:50:00,
2013-03-27 02:55:00,45.0,36.8,29.60,North,0,0.0,0.0,73,0.00,,,0.00,WUHU216HW,2013-03-27 09:55:00,
2013-03-27 03:00:00,44.8,36.6,29.60,North,0,0.0,0.0,73,0.00,,,0.00,WUHU216HW,2013-03-27 10:00:00,
2013-03-27 03:05:00,44.8,36.6,29.59,North,0,0.0,0.0,73,0.00,,,0.00,WUHU216HW,2013-03-27 10:05:00,
2013-03-27 03:10:00,45.0,36.8,29.59,North,0,0.0,0.0,73,0.00,,,0.00,WUHU216HW,2013-03-27 10:10:00,
2013-03-27 03:15:00,45.0,36.8,29.59,North,0,0.0,0.0,73,0.00,,,0.00,WUHU216HW,2013-03-27 10:15:00,
2013-03-27 03:20:00,44.8,36.6,29.59,North,0,0.0,0.0,73,0.00,,,0.00,WUHU216HW,2013-03-27 10:20:00,
2013-03-27 03:25:00,44.8,36.6,29.59,North,0,0.0,0.0,73,0.00,,,0.00,WUHU216HW,2013-03-27 10:25:00,
2013-03-27 03:30:00,44.6,36.8,29.59,North,0,0.0,0.0,74,0.00,,,0.00,WUHU216HW,2013-03-27 10:30:00,
2013-03-27 03:35:00,44.6,36.8,29.59,North,0,0.0,0.0,74,0.00,,,0.00,WUHU216HW,2013-03-27 10:35:00,
2013-03-27 03:40:00,44.6,36.8,29.59,North,0,0.0,0.0,74,0.00,,,0.00,WUHU216HW,2013-03-27 10:40:00,
2013-03-27 03:45:00,44.6,36.8,29.58,North,0,0.0,0.0,74,0.00,,,0.00,WUHU216HW,2013-03-27 10:45:00,
2013-03-27 03:50:00,44.5,36.6,29.58,North,0,0.0,0.0,74,0.00,,,0.00,WUHU216HW,2013-03-27 10:50:00,
2013-03-27 03:55:00,44.3,36.5,29.58,North,0,0.0,0.0,74,0.00,,,0.00,WUHU216HW,2013-03-27 10:55:00,
2013-03-27 04:00:00,44.3,36.5,29.58,North,0,0.0,0.0,74,0.00,,,0.00,WUHU216HW,2013-03-27 11:00:00,
2013-03-27 04:05:00,44.1,36.4,29.58,North,0,0.0,0.0,74,0.00,,,0.00,WUHU216HW,2013-03-27 11:05:00,
2013-03-27 04:10:00,44.1,36.4,29.58,North,0,0.0,0.0,74,0.00,,,0.00,WUHU216HW,2013-03-27 11:10:00,
2013-03-27 04:15:00,43.9,36.2,29.58,North,0,0.0,0.0,74,0.00,,,0.00,WUHU216HW,2013-03-27 11:15:00,
2013-03-27 04:20:00,43.9,36.2,29.58,North,0,0.0,0.0,74,0.00,,,0.00,WUHU216HW,2013-03-27 11:20:00,
2013-03-27 04:25:00,43.9,36.2,29.58,North,0,0.0,0.0,74,0.00,,,0.00,WUHU216HW,2013-03-27 11:25:00,
2013-03-27 04:30:00,43.7,36.0,29.58,North,0,0.0,0.0,74,0.00,,,0.00,WUHU216HW,2013-03-27 11:30:00,
2013-03-27 04:35:00,43.6,35.8,29.58,North,0,0.0,0.0,74,0.00,,,0.00,WUHU216HW,2013-03-27 11:35:00,
2013-03-27 04:40:00,43.6,35.8,29.58,North,0,0.0,0.0,74,0.00,,,0.00,WUHU216HW,2013-03-27 11:40:00,
2013-03-27 04:45:00,43.6,35.8,29.58,North,0,0.0,0.0,74,0.00,,,0.00,WUHU216HW,2013-03-27 11:45:00,
2013-03-27 04:50:00,43.6,35.8,29.58,North,0,0.0,0.0,74,0.00,,,0.00,WUHU216HW,2013-03-27 11:50:00,
2013-03-27 04:55:00,43.4,36.0,29.58,North,0,0.0,0.0,75,0.00,,,0.00,WUHU216HW,2013-03-27 11:55:00,
2013-03-27 05:00:00,43.4,36.0,29.58,North,0,0.0,0.0,75,0.00,,,0.00,WUHU216HW,2013-03-27 12:00:00,
2013-03-27 05:05:00,43.2,35.8,29.58,North,0,0.0,0.0,75,0.00,,,0.00,WUHU216HW,2013-03-27 12:05:00,
2013-03-27 05:10:00,43.2,36.1,29.58,North,0,0.0,0.0,76,0.00,,,0.00,WUHU216HW,2013-03-27 12:10:00,
2013-03-27 05:15:00,43.2,36.5,29.58,North,0,0.0,0.0,77,0.00,,,0.00,WUHU216HW,2013-03-27 12:15:00,
2013-03-27 05:20:00,43.2,36.5,29.57,North,0,0.0,0.0,77,0.00,,,0.00,WUHU216HW,2013-03-27 12:20:00,
2013-03-27 05:25:00,43.2,36.5,29.57,North,0,0.0,0.0,77,0.00,,,0.00,WUHU216HW,2013-03-27 12:25:00,
2013-03-27 05:30:00,43.2,36.5,29.57,North,0,0.0,0.0,77,0.00,,,0.00,WUHU216HW,2013-03-27 12:30:00,
2013-03-27 05:35:00,43.0,36.3,29.57,North,0,0.0,0.0,77,0.00,,,0.00,WUHU216HW,2013-03-27 12:35:00,
2013-03-27 05:40:00,43.2,36.5,29.57,North,0,0.0,0.0,77,0.00,,,0.00,WUHU216HW,2013-03-27 12:40:00,
2013-03-27 05:45:00,43.2,36.5,29.57,North,0,0.0,0.0,77,0.00,,,0.00,WUHU216HW,2013-03-27 12:45:00,
2013-03-27 05:50:00,43.2,36.5,29.57,North,0,0.0,0.0,77,0.00,,,0.00,WUHU216HW,2013-03-27 12:50:00,
2013-03-27 05:55:00,43.0,36.3,29.57,North,0,0.0,0.0,77,0.00,,,0.00,WUHU216HW,2013-03-27 12:55:00,
2013-03-27 06:00:00,42.8,36.1,29.58,North,0,0.0,0.0,77,0.00,,,0.00,WUHU216HW,2013-03-27 13:00:00,
2013-03-27 06:05:00,42.8,36.1,29.58,North,0,0.0,0.0,77,0.00,,,0.00,WUHU216HW,2013-03-27 13:05:00,
2013-03-27 06:10:00,42.8,36.1,29.58,North,0,0.0,0.0,77,0.00,,,0.00,WUHU216HW,2013-03-27 13:10:00,
2013-03-27 06:15:00,42.8,36.1,29.58,North,0,0.0,0.0,77,0.00,,,0.00,WUHU216HW,2013-03-27 13:15:00,
2013-03-27 06:20:00,42.7,35.9,29.58,North,0,0.0,0.0,77,0.00,,,0.00,WUHU216HW,2013-03-27 13:20:00,
2013-03-27 06:25:00,42.7,35.9,29.58,North,0,0.0,0.0,77,0.00,,,0.00,WUHU216HW,2013-03-27 13:25:00,
2013-03-27 06:30:00,42.7,35.9,29.58,North,0,0.0,0.0,77,0.00,,,0.00,WUHU216HW,2013-03-27 13:30:00,
2013-03-27 06:35:00,42.5,35.7,29.58,North,0,0.0,0.0,77,0.00,,,0.00,WUHU216HW,2013-03-27 13:35:00,
2013-03-27 06:40:00,42.5,35.7,29.58,North,0,0.0,0.0,77,0.00,,,0.00,WUHU216HW,2013-03-27 13:40:00,
2013-03-27 06:45:00,42.5,35.7,29.58,North,0,0.0,0.0,77,0.00,,,0.00,WUHU216HW,2013-03-27 13:45:00,
2013-03-27 06:50:00,42.5,36.1,29.58,North,0,0.0,0.0,78,0.00,,,0.00,WUHU216HW,2013-03-27 13:50:00,
2013-03-27 06:55:00,42.7,36.3,29.58,North,0,0.0,0.0,78,0.00,,,0.00,WUHU216HW,2013-03-27 13:55:00,
2013-03-27 07:00:00,42.7,36.3,29.58,North,0,0.0,0.0,78,0.00,,,0.00,WUHU216HW,2013-03-27 14:00:00,
2013-03-27 07:05:00,42.5,36.1,29.58,North,0,0.0,0.0,78,0.00,,,0.00,WUHU216HW,2013-03-27 14:05:00,
2013-03-27 07:10:00,42.5,36.1,29.58,North,0,0.0,0.0,78,0.00,,,0.00,WUHU216HW,2013-03-27 14:10:00,
2013-03-27 07:15:00,42.5,36.1,29.58,North,0,0.0,0.0,78,0.00,,,0.00,WUHU216HW,2013-03-27 14:15:00,
2013-03-27 07:20:00,42.3,35.9,29.58,North,0,0.0,0.0,78,0.00,,,0.00,WUHU216HW,2013-03-27 14:20:00,
2013-03-27 07:25:00,42.3,35.9,29.58,North,0,0.0,0.0,78,0.00,,,0.00,WUHU216HW,2013-03-27 14:25:00,
2013-03-27 07:30:00,42.1,35.7,29.58,North,0,0.0,0.0,78,0.00,,,0.00,WUHU216HW,2013-03-27 14:30:00,
2013-03-27 07:35:00,42.1,35.7,29.58,North,0,0.0,0.0,78,0.00,,,0.00,WUHU216HW,2013-03-27 14:35:00,
2013-03-27 07:40:00,42.1,35.7,29.58,North,0,0.0,0.0,78,0.00,,,0.00,WUHU216HW,2013-03-27 14:40:00,
2013-03-27 07:45:00,42.1,35.7,29.58,North,0,0.0,0.0,78,0.00,,,0.00,WUHU216HW,2013-03-27 14:45:00,
2013-03-27 07:50:00,42.3,36.2,29.58,North,0,0.0,0.0,79,0.00,,,0.00,WUHU216HW,2013-03-27 14:50:00,
2013-03-27 07:55:00,42.5,36.4,29.58,North,0,0.0,0.0,79,0.00,,,0.00,WUHU216HW,2013-03-27 14:55:00,
2013-03-27 08:00:00,42.5,36.4,29.58,North,0,0.0,0.0,79,0.00,,,0.00,WUHU216HW,2013-03-27 15:00:00,
2013-03-27 08:05:00,42.8,37.1,29.58,North,0,0.0,0.0,80,0.00,,,0.00,WUHU216HW,2013-03-27 15:05:00,
2013-03-27 08:10:00,43.2,37.7,29.59,North,0,0.0,0.0,81,0.00,,,0.00,WUHU216HW,2013-03-27 15:10:00,
2013-03-27 08:15:00,43.6,38.1,29.59,North,0,0.0,0.0,81,0.00,,,0.00,WUHU216HW,2013-03-27 15:15:00,
2013-03-27 08:20:00,43.7,38.3,29.59,North,0,0.0,0.0,81,0.00,,,0.00,WUHU216HW,2013-03-27 15:20:00,
2013-03-27 08:25:00,43.9,38.4,29.59,North,0,0.0,0.0,81,0.00,,,0.00,WUHU216HW,2013-03-27 15:25:00,
2013-03-27 08:30:00,44.3,38.8,29.59,North,0,0.0,0.0,81,0.00,,,0.00,WUHU216HW,2013-03-27 15:30:00,
2013-03-27 08:35:00,44.3,38.8,29.59,North,0,0.0,0.0,81,0.00,,,0.00,WUHU216HW,2013-03-27 15:35:00,
2013-03-27 08:40:00,44.5,39.0,29.59,North,0,0.0,0.0,81,0.00,,,0.00,WUHU216HW,2013-03-27 15:40:00,
2013-03-27 08:45:00,44.8,39.3,29.59,North,0,0.0,0.0,81,0.00,,,0.00,WUHU216HW,2013-03-27 15:45:00,
2013-03-27 08:50:00,45.0,39.2,29.59,North,0,0.0,0.0,80,0.00,,,0.00,WUHU216HW,2013-03-27 15:50:00,
2013-03-27 08:55:00,45.2,39.4,29.59,North,0,0.0,0.0,80,0.00,,,0.00,WUHU216HW,2013-03-27 15:55:00,
2013-03-27 09:00:00,45.4,39.6,29.59,North,0,0.0,0.0,80,0.00,,,0.00,WUHU216HW,2013-03-27 16:00:00,
2013-03-27 09:05:00,45.7,39.6,29.59,North,0,0.0,0.0,79,0.00,,,0.00,WUHU216HW,2013-03-27 16:05:00,
2013-03-27 09:10:00,45.9,39.8,29.59,North,0,0.0,0.0,79,0.00,,,0.00,WUHU216HW,2013-03-27 16:10:00,
2013-03-27 09:15:00,45.9,39.8,29.59,North,0,0.0,0.0,79,0.00,,,0.00,WUHU216HW,2013-03-27 16:15:00,
2013-03-27 09:20:00,46.1,40.0,29.59,North,0,0.0,0.0,79,0.00,,,0.00,WUHU216HW,2013-03-27 16:20:00,
2013-03-27 09:25:00,46.4,40.3,29.60,North,0,0.0,0.0,79,0.00,,,0.00,WUHU216HW,2013-03-27 16:25:00,
2013-03-27 09:30:00,46.6,40.1,29.60,North,0,0.0,0.0,78,0.00,,,0.00,WUHU216HW,2013-03-27 16:30:00,
2013-03-27 09:35:00,46.6,40.1,29.59,North,0,0.0,0.0,78,0.00,,,0.00,WUHU216HW,2013-03-27 16:35:00,
2013-03-27 09:40:00,47.0,40.5,29.59,North,0,0.0,0.0,78,0.00,,,0.00,WUHU216HW,2013-03-27 16:40:00,
2013-03-27 09:45:00,47.0,40.9,29.60,North,0,0.0,0.0,79,0.00,,,0.00,WUHU216HW,2013-03-27 16:45:00,
2013-03-27 09:50:00,47.2,40.7,29.60,North,0,0.0,0.0,78,0.00,,,0.00,WUHU216HW,2013-03-27 16:50:00,
2013-03-27 09:55:00,47.5,41.0,29.59,North,0,0.0,0.0,78,0.00,,,0.00,WUHU216HW,2013-03-27 16:55:00,
2013-03-27 10:00:00,47.5,41.0,29.60,North,0,0.0,0.0,78,0.00,,,0.00,WUHU216HW,2013-03-27 17:00:00,
2013-03-27 10:05:00,47.5,41.0,29.60,North,0,0.0,0.0,78,0.00,,,0.00,WUHU216HW,2013-03-27 17:05:00,
2013-03-27 10:10:00,47.5,41.0,29.60,North,0,0.0,0.0,78,0.00,,,0.00,WUHU216HW,2013-03-27 17:10:00,
2013-03-27 10:15:00,47.7,40.8,29.60,North,0,0.0,0.0,77,0.00,,,0.00,WUHU216HW,2013-03-27 17:15:00,
2013-03-27 10:20:00,48.1,41.1,29.60,North,0,0.0,0.0,77,0.00,,,0.00,WUHU216HW,2013-03-27 17:20:00,
2013-03-27 10:25:00,48.2,41.3,29.60,North,0,0.0,0.0,77,0.00,,,0.00,WUHU216HW,2013-03-27 17:25:00,
2013-03-27 10:30:00,48.4,41.1,29.60,North,0,0.0,0.0,76,0.00,,,0.00,WUHU216HW,2013-03-27 17:30:00,
2013-03-27 10:35:00,48.6,41.7,29.60,North,0,0.0,0.0,77,0.00,,,0.00,WUHU216HW,2013-03-27 17:35:00,
2013-03-27 10:40:00,49.3,42.0,29.60,North,0,0.0,0.0,76,0.00,,,0.00,WUHU216HW,2013-03-27 17:40:00,
2013-03-27 10:45:00,49.3,41.7,29.60,North,0,0.0,0.0,75,0.00,,,0.00,WUHU216HW,2013-03-27 17:45:00,
2013-03-27 10:50:00,49.7,42.0,29.60,North,0,0.0,0.0,75,0.00,,,0.00,WUHU216HW,2013-03-27 17:50:00,
2013-03-27 10:55:00,50.0,42.4,29.60,North,0,0.0,0.0,75,0.00,,,0.00,WUHU216HW,2013-03-27 17:55:00,
2013-03-27 11:00:00,50.2,42.6,29.60,North,0,0.0,0.0,75,0.00,,,0.00,WUHU216HW,2013-03-27 18:00:00,
2013-03-27 11:05:00,50.6,42.6,29.60,North,0,0.0,0.0,74,0.00,,,0.00,WUHU216HW,2013-03-27 18:05:00,
2013-03-27 11:10:00,50.8,42.8,29.60,North,0,0.0,0.0,74,0.00,,,0.00,WUHU216HW,2013-03-27 18:10:00,
2013-03-27 11:15:00,50.9,42.6,29.60,North,0,0.0,0.0,73,0.00,,,0.00,WUHU216HW,2013-03-27 18:15:00,
2013-03-27 11:20:00,51.1,42.8,29.61,North,0,0.0,0.0,73,0.00,,,0.00,WUHU216HW,2013-03-27 18:20:00,
2013-03-27 11:25:00,51.5,42.9,29.61,North,0,0.0,0.0,72,0.00,,,0.00,WUHU216HW,2013-03-27 18:25:00,
2013-03-27 11:30:00,51.7,43.0,29.61,North,0,0.0,0.0,72,0.00,,,0.00,WUHU216HW,2013-03-27 18:30:00,
2013-03-27 11:35:00,51.8,43.2,29.61,North,0,0.0,0.0,72,0.00,,,0.00,WUHU216HW,2013-03-27 18:35:00,
2013-03-27 11:40:00,52.4,43.7,29.61,North,0,0.0,0.0,72,0.00,,,0.00,WUHU216HW,2013-03-27 18:40:00,
2013-03-27 11:45:00,52.7,44.0,29.61,North,0,0.0,0.0,72,0.00,,,0.00,WUHU216HW,2013-03-27 18:45:00,
2013-03-27 11:50:00,52.9,44.2,29.60,North,0,0.0,0.0,72,0.00,,,0.00,WUHU216HW,2013-03-27 18:50:00,
2013-03-27 11:55:00,53.1,44.3,29.61,North,0,0.0,0.0,72,0.00,,,0.00,WUHU216HW,2013-03-27 18:55:00,
2013-03-27 12:00:00,53.5,44.6,29.61,North,0,0.0,0.0,72,0.00,,,0.00,WUHU216HW,2013-03-27 19:00:00,
2013-03-27 12:05:00,53.5,44.3,29.61,North,0,0.0,0.0,71,0.00,,,0.00,WUHU216HW,2013-03-27 19:05:00,
2013-03-27 12:10:00,53.6,44.1,29.60,North,0,0.0,0.0,70,0.00,,,0.00,WUHU216HW,2013-03-27 19:10:00,
2013-03-27 12:15:00,53.8,43.9,29.61,North,0,0.0,0.0,69,0.00,,,0.00,WUHU216HW,2013-03-27 19:15:00,
2013-03-27 12:20:00,54.0,44.1,29.60,North,0,0.0,0.0,69,0.00,,,0.00,WUHU216HW,2013-03-27 19:20:00,
2013-03-27 12:25:00,54.0,44.1,29.61,North,0,0.0,0.0,69,0.00,,,0.00,WUHU216HW,2013-03-27 19:25:00,
2013-03-27 12:30:00,54.4,44.5,29.61,North,0,0.0,0.0,69,0.00,,,0.00,WUHU216HW,2013-03-27 19:30:00,
2013-03-27 12:35:00,54.5,44.2,29.61,North,0,0.0,0.0,68,0.00,,,0.00,WUHU216HW,2013-03-27 19:35:00,
2013-03-27 12:40:00,54.7,44.4,29.61,North,0,0.0,0.0,68,0.00,,,0.00,WUHU216HW,2013-03-27 19:40:00,
2013-03-27 12:45:00,55.1,44.7,29.60,North,0,0.0,0.0,68,0.00,,,0.00,WUHU216HW,2013-03-27 19:45:00,
2013-03-27 12:50:00,55.8,45.0,29.61,North,0,0.0,0.0,67,0.00,,,0.00,WUHU216HW,2013-03-27 19:50:00,
2013-03-27 12:55:00,55.8,44.6,29.61,North,0,0.0,0.0,66,0.00,,,0.00,WUHU216HW,2013-03-27 19:55:00,
2013-03-27 13:00:00,55.8,44.2,29.60,North,0,0.0,0.0,65,0.00,,,0.00,WUHU216HW,2013-03-27 20:00:00,
2013-03-27 13:05:00,56.0,44.7,29.61,North,0,0.0,0.0,66,0.00,,,0.00,WUHU216HW,2013-03-27 20:05:00,
2013-03-27 13:10:00,56.7,45.5,29.61,North,0,0.0,0.0,66,0.00,,,0.00,WUHU216HW,2013-03-27 20:10:00,
2013-03-27 13:15:00,57.1,45.8,29.61,North,0,0.0,0.0,66,0.00,,,0.00,WUHU216HW,2013-03-27 20:15:00,
2013-03-27 13:20:00,57.4,45.7,29.61,North,0,0.0,0.0,65,0.00,,,0.00,WUHU216HW,2013-03-27 20:20:00,
2013-03-27 13:25:00,57.6,45.5,29.61,North,0,0.0,0.0,64,0.00,,,0.00,WUHU216HW,2013-03-27 20:25:00,
2013-03-27 13:30:00,57.6,45.1,29.60,North,0,0.0,0.0,63,0.00,,,0.00,WUHU216HW,2013-03-27 20:30:00,
2013-03-27 13:35:00,57.2,44.4,29.61,North,0,0.0,0.0,62,0.00,,,0.00,WUHU216HW,2013-03-27 20:35:00,
2013-03-27 13:40:00,57.2,44.4,29.60,North,0,0.0,0.0,62,0.00,,,0.00,WUHU216HW,2013-03-27 20:40:00,
2013-03-27 13:45:00,57.4,44.6,29.60,North,0,0.0,0.0,62,0.00,,,0.00,WUHU216HW,2013-03-27 20:45:00,
2013-03-27 13:50:00,57.6,43.9,29.60,North,0,0.0,0.0,60,0.00,,,0.00,WUHU216HW,2013-03-27 20:50:00,
2013-03-27 13:55:00,57.6,44.3,29.61,North,0,0.0,0.0,61,0.00,,,0.00,WUHU216HW,2013-03-27 20:55:00,
2013-03-27 14:00:00,57.6,44.3,29.61,North,0,0.0,0.0,61,0.00,,,0.00,WUHU216HW,2013-03-27 21:00:00,
2013-03-27 14:05:00,57.4,43.8,29.60,North,0,0.0,0.0,60,0.00,,,0.00,WUHU216HW,2013-03-27 21:05:00,
2013-03-27 14:10:00,57.4,44.1,29.61,North,0,0.0,0.0,61,0.00,,,0.00,WUHU216HW,2013-03-27 21:10:00,
2013-03-27 14:15:00,57.6,45.1,29.60,North,0,0.0,0.0,63,0.00,,,0.00,WUHU216HW,2013-03-27 21:15:00,
2013-03-27 14:20:00,58.0,45.8,29.60,North,0,0.0,0.0,64,0.00,,,0.00,WUHU216HW,2013-03-27 21:20:00,
2013-03-27 14:25:00,58.3,46.2,29.61,North,0,0.0,0.0,64,0.00,,,0.00,WUHU216HW,2013-03-27 21:25:00,
2013-03-27 14:30:00,58.3,46.5,29.60,North,0,0.0,0.0,65,0.00,,,0.00,WUHU216HW,2013-03-27 21:30:00,
2013-03-27 14:35:00,58.7,47.4,29.60,North,0,0.0,0.0,66,0.00,,,0.00,WUHU216HW,2013-03-27 21:35:00,
2013-03-27 14:40:00,58.5,46.7,29.60,North,0,0.0,0.0,65,0.00,,,0.00,WUHU216HW,2013-03-27 21:40:00,
2013-03-27 14:45:00,58.3,47.0,29.60,North,0,0.0,0.0,66,0.00,,,0.00,WUHU216HW,2013-03-27 21:45:00,
2013-03-27 14:50:00,58.1,46.8,29.61,North,0,0.0,0.0,66,0.00,,,0.00,WUHU216HW,2013-03-27 21:50:00,
2013-03-27 14:55:00,58.0,47.1,29.61,North,0,0.0,0.0,67,0.00,,,0.00,WUHU216HW,2013-03-27 21:55:00,
2013-03-27 15:00:00,58.0,47.4,29.61,North,0,0.0,0.0,68,0.00,,,0.00,WUHU216HW,2013-03-27 22:00:00,
2013-03-27 15:05:00,58.0,47.4,29.61,North,0,0.0,0.0,68,0.00,,,0.00,WUHU216HW,2013-03-27 22:05:00,
2013-03-27 15:10:00,57.4,47.4,29.61,North,0,0.0,0.0,69,0.01,,,0.01,WUHU216HW,2013-03-27 22:10:00,
2013-03-27 15:15:00,57.2,47.2,29.61,North,0,0.0,0.0,69,0.01,,,0.01,WUHU216HW,2013-03-27 22:15:00,
2013-03-27 15:20:00,57.1,47.3,29.61,North,0,0.0,0.0,70,0.01,,,0.01,WUHU216HW,2013-03-27 22:20:00,
2013-03-27 15:25:00,56.7,47.4,29.61,North,0,0.0,0.0,71,0.02,,,0.02,WUHU216HW,2013-03-27 22:25:00,
2013-03-27 15:30:00,56.5,47.6,29.61,North,0,0.0,0.0,72,0.02,,,0.02,WUHU216HW,2013-03-27 22:30:00,
2013-03-27 15:35:00,56.3,47.4,29.61,North,0,0.0,0.0,72,0.03,,,0.03,WUHU216HW,2013-03-27 22:35:00,
2013-03-27 15:40:00,56.3,47.8,29.61,North,0,0.0,0.0,73,0.03,,,0.03,WUHU216HW,2013-03-27 22:40:00,
2013-03-27 15:45:00,56.0,47.4,29.61,North,0,0.0,0.0,73,0.03,,,0.03,WUHU216HW,2013-03-27 22:45:00,
2013-03-27 15:50:00,55.8,47.3,29.61,North,0,0.0,0.0,73,0.03,,,0.03,WUHU216HW,2013-03-27 22:50:00,
2013-03-27 15:55:00,55.4,46.9,29.61,North,0,0.0,0.0,73,0.03,,,0.03,WUHU216HW,2013-03-27 22:55:00,
2013-03-27 16:00:00,55.1,46.6,29.61,North,0,0.0,0.0,73,0.03,,,0.03,WUHU216HW,2013-03-27 23:00:00,
2013-03-27 16:05:00,54.7,46.6,29.61,North,0,0.0,0.0,74,0.02,,,0.03,WUHU216HW,2013-03-27 23:05:00,
2013-03-27 16:10:00,54.7,46.9,29.61,North,0,0.0,0.0,75,0.02,,,0.03,WUHU216HW,2013-03-27 23:10:00,
2013-03-27 16:15:00,54.7,46.9,29.61,North,0,0.0,0.0,75,0.03,,,0.04,WUHU216HW,2013-03-27 23:15:00,
2013-03-27 16:20:00,54.9,47.4,29.61,North,0,0.0,0.0,76,0.03,,,0.04,WUHU216HW,2013-03-27 23:20:00,
2013-03-27 16:25:00,54.9,47.4,29.61,North,0,0.0,0.0,76,0.02,,,0.04,WUHU216HW,2013-03-27 23:25:00,
2013-03-27 16:30:00,54.9,47.4,29.61,North,0,0.0,0.0,76,0.02,,,0.04,WUHU216HW,2013-03-27 23:30:00,
2013-03-27 16:35:00,54.9,47.4,29.61,North,0,0.0,0.0,76,0.01,,,0.04,WUHU216HW,2013-03-27 23:35:00,
2013-03-27 16:40:00,54.9,47.8,29.61,North,0,0.0,0.0,77,0.01,,,0.04,WUHU216HW,2013-03-27 23:40:00,
2013-03-27 16:45:00,54.9,47.8,29.61,North,0,0.0,0.0,77,0.01,,,0.04,WUHU216HW,2013-03-27 23:45:00,
2013-03-27 16:50:00,55.1,48.3,29.61,North,0,0.0,0.0,78,0.01,,,0.04,WUHU216HW,2013-03-27 23:50:00,
2013-03-27 16:55:00,55.3,48.5,29.61,North,0,0.0,0.0,78,0.01,,,0.04,WUHU216HW,2013-03-27 23:55:00,
2013-03-27 17:00:00,55.1,48.0,29.61,North,0,0.0,0.0,77,0.01,,,0.04,WUHU216HW,2013-03-28 00:00:00,
2013-03-27 17:05:00,55.1,47.6,29.61,North,0,0.0,0.0,76,0.01,,,0.04,WUHU216HW,2013-03-28 00:05:00,
2013-03-27 17:10:00,55.1,47.6,29.61,North,0,0.0,0.0,76,0.01,,,0.04,WUHU216HW,2013-03-28 00:10:00,
2013-03-27 17:15:00,54.9,47.4,29.61,North,0,0.0,0.0,76,0.00,,,0.04,WUHU216HW,2013-03-28 00:15:00,
2013-03-27 17:20:00,54.7,47.3,29.61,North,0,0.0,0.0,76,0.00,,,0.04,WUHU216HW,2013-03-28 00:20:00,
2013-03-27 17:25:00,54.7,47.6,29.61,North,0,0.0,0.0,77,0.00,,,0.04,WUHU216HW,2013-03-28 00:25:00,
2013-03-27 17:30:00,54.5,47.4,29.61,North,0,0.0,0.0,77,0.00,,,0.04,WUHU216HW,2013-03-28 00:30:00,
2013-03-27 17:35:00,54.5,47.4,29.61,North,0,0.0,0.0,77,0.00,,,0.04,WUHU216HW,2013-03-28 00:35:00,
2013-03-27 17:40:00,54.5,47.4,29.61,North,0,0.0,0.0,77,0.00,,,0.04,WUHU216HW,2013-03-28 00:40:00,
2013-03-27 17:45:00,54.5,47.4,29.61,North,0,0.0,0.0,77,0.00,,,0.04,WUHU216HW,2013-03-28 00:45:00,
2013-03-27 17:50:00,54.5,47.8,29.61,North,0,0.0,0.0,78,0.00,,,0.04,WUHU216HW,2013-03-28 00:50:00,
2013-03-27 17:55:00,54.7,48.0,29.61,North,0,0.0,0.0,78,0.00,,,0.04,WUHU216HW,2013-03-28 00:55:00,
2013-03-27 18:00:00,54.4,47.3,29.60,North,0,0.0,0.0,77,0.00,,,0.04,WUHU216HW,2013-03-28 01:00:00,
2013-03-27 18:05:00,54.4,47.3,29.61,North,0,0.0,0.0,77,0.00,,,0.04,WUHU216HW,2013-03-28 01:05:00,
2013-03-27 18:10:00,54.4,47.3,29.60,North,0,0.0,0.0,77,0.00,,,0.04,WUHU216HW,2013-03-28 01:10:00,
2013-03-27 18:15:00,54.4,47.3,29.60,North,0,0.0,0.0,77,0.00,,,0.04,WUHU216HW,2013-03-28 01:15:00,
2013-03-27 18:20:00,54.4,47.3,29.60,North,0,0.0,0.0,77,0.00,,,0.04,WUHU216HW,2013-03-28 01:20:00,
2013-03-27 18:25:00,54.4,47.0,29.60,North,0,0.0,0.0,76,0.00,,,0.04,WUHU216HW,2013-03-28 01:25:00,
2013-03-27 18:30:00,54.2,46.8,29.60,North,0,0.0,0.0,76,0.00,,,0.04,WUHU216HW,2013-03-28 01:30:00,
2013-03-27 18:35:00,54.2,46.8,29.60,North,0,0.0,0.0,76,0.00,,,0.04,WUHU216HW,2013-03-28 01:35:00,
2013-03-27 18:40:00,54.0,46.6,29.60,North,0,0.0,0.0,76,0.00,,,0.04,WUHU216HW,2013-03-28 01:40:00,
2013-03-27 18:45:00,54.2,47.2,29.60,North,0,0.0,0.0,77,0.00,,,0.04,WUHU216HW,2013-03-28 01:45:00,
2013-03-27 18:50:00,54.0,47.0,29.60,North,0,0.0,0.0,77,0.00,,,0.04,WUHU216HW,2013-03-28 01:50:00,
2013-03-27 18:55:00,54.0,47.0,29.60,North,0,0.0,0.0,77,0.00,,,0.04,WUHU216HW,2013-03-28 01:55:00,
2013-03-27 19:00:00,53.8,46.8,29.60,North,0,0.0,0.0,77,0.00,,,0.04,WUHU216HW,2013-03-28 02:00:00,
2013-03-27 19:05:00,53.6,46.6,29.60,North,0,0.0,0.0,77,0.00,,,0.04,WUHU216HW,2013-03-28 02:05:00,
2013-03-27 19:10:00,53.3,46.3,29.60,North,0,0.0,0.0,77,0.00,,,0.04,WUHU216HW,2013-03-28 02:10:00,
2013-03-27 19:15:00,53.1,46.4,29.60,North,0,0.0,0.0,78,0.00,,,0.04,WUHU216HW,2013-03-28 02:15:00,
2013-03-27 19:20:00,52.9,46.3,29.60,North,0,0.0,0.0,78,0.00,,,0.04,WUHU216HW,2013-03-28 02:20:00,
2013-03-27 19:25:00,52.6,45.9,29.60,North,0,0.0,0.0,78,0.00,,,0.04,WUHU216HW,2013-03-28 02:25:00,
2013-03-27 19:30:00,52.2,45.5,29.60,North,0,0.0,0.0,78,0.00,,,0.04,WUHU216HW,2013-03-28 02:30:00,
2013-03-27 19:35:00,52.0,45.4,29.60,North,0,0.0,0.0,78,0.00,,,0.04,WUHU216HW,2013-03-28 02:35:00,
2013-03-27 19:40:00,51.7,45.0,29.60,North,0,0.0,0.0,78,0.00,,,0.04,WUHU216HW,2013-03-28 02:40:00,
2013-03-27 19:45:00,51.5,44.8,29.60,North,0,0.0,0.0,78,0.00,,,0.04,WUHU216HW,2013-03-28 02:45:00,
2013-03-27 19:50:00,51.1,44.5,29.60,North,0,0.0,0.0,78,0.00,,,0.04,WUHU216HW,2013-03-28 02:50:00,
2013-03-27 19:55:00,50.6,44.3,29.60,North,0,0.0,0.0,79,0.00,,,0.04,WUHU216HW,2013-03-28 02:55:00,
2013-03-27 20:00:00,50.4,44.1,29.60,North,0,0.0,0.0,79,0.00,,,0.04,WUHU216HW,2013-03-28 03:00:00,
2013-03-27 20:05:00,50.0,43.7,29.60,North,0,0.0,0.0,79,0.00,,,0.04,WUHU216HW,2013-03-28 03:05:00,
2013-03-27 20:10:00,49.7,43.4,29.60,North,0,0.0,0.0,79,0.00,,,0.04,WUHU216HW,2013-03-28 03:10:00,
2013-03-27 20:15:00,49.3,43.0,29.60,North,0,0.0,0.0,79,0.00,,,0.04,WUHU216HW,2013-03-28 03:15:00,
2013-03-27 20:20:00,49.1,42.8,29.60,North,0,0.0,0.0,79,0.00,,,0.04,WUHU216HW,2013-03-28 03:20:00,
2013-03-27 20:25:00,48.8,42.5,29.60,North,0,0.0,0.0,79,0.00,,,0.04,WUHU216HW,2013-03-28 03:25:00,
2013-03-27 20:30:00,48.6,42.7,29.60,North,0,0.0,0.0,80,0.00,,,0.04,WUHU216HW,2013-03-28 03:30:00,
2013-03-27 20:35:00,48.4,42.5,29.61,North,0,0.0,0.0,80,0.00,,,0.04,WUHU216HW,2013-03-28 03:35:00,
2013-03-27 20:40:00,48.2,42.3,29.61,North,0,0.0,0.0,80,0.00,,,0.04,WUHU216HW,2013-03-28 03:40:00,
2013-03-27 20:45:00,48.1,42.1,29.61,North,0,0.0,0.0,80,0.00,,,0.04,WUHU216HW,2013-03-28 03:45:00,
2013-03-27 20:50:00,48.1,42.1,29.61,North,0,0.0,0.0,80,0.00,,,0.04,WUHU216HW,2013-03-28 03:50:00,
2013-03-27 20:55:00,47.9,41.9,29.61,North,0,0.0,0.0,80,0.00,,,0.04,WUHU216HW,2013-03-28 03:55:00,
2013-03-27 21:00:00,47.9,41.9,29.61,North,0,0.0,0.0,80,0.00,,,0.04,WUHU216HW,2013-03-28 04:00:00,
2013-03-27 21:05:00,47.9,41.9,29.61,North,0,0.0,0.0,80,0.00,,,0.04,WUHU216HW,2013-03-28 04:05:00,
2013-03-27 21:10:00,47.5,41.7,29.61,North,0,0.0,0.0,80,0.00,,,0.04,WUHU216HW,2013-03-28 04:10:00,
2013-03-27 21:15:00,47.5,41.9,29.61,North,0,0.0,0.0,81,0.00,,,0.04,WUHU216HW,2013-03-28 04:15:00,
2013-03-27 21:20:00,47.3,41.8,29.61,North,0,0.0,0.0,81,0.00,,,0.04,WUHU216HW,2013-03-28 04:20:00,
2013-03-27 21:25:00,47.2,41.7,29.61,North,0,0.0,0.0,81,0.00,,,0.04,WUHU216HW,2013-03-28 04:25:00,
2013-03-27 21:30:00,47.2,41.7,29.61,North,0,0.0,0.0,81,0.00,,,0.04,WUHU216HW,2013-03-28 04:30:00,
2013-03-27 21:35:00,46.8,41.3,29.61,North,0,0.0,0.0,81,0.00,,,0.04,WUHU216HW,2013-03-28 04:35:00,
2013-03-27 21:40:00,46.8,41.3,29.61,North,0,0.0,0.0,81,0.00,,,0.04,WUHU216HW,2013-03-28 04:40:00,
2013-03-27 21:45:00,46.4,41.0,29.61,North,0,0.0,0.0,81,0.00,,,0.04,WUHU216HW,2013-03-28 04:45:00,
2013-03-27 21:50:00,46.3,40.8,29.61,North,0,0.0,0.0,81,0.00,,,0.04,WUHU216HW,2013-03-28 04:50:00,
2013-03-27 21:55:00,46.1,41.0,29.62,North,0,0.0,0.0,82,0.00,,,0.04,WUHU216HW,2013-03-28 04:55:00,
2013-03-27 22:00:00,46.1,40.6,29.61,North,0,0.0,0.0,81,0.00,,,0.04,WUHU216HW,2013-03-28 05:00:00,
2013-03-27 22:05:00,45.9,40.4,29.62,North,0,0.0,0.0,81,0.00,,,0.04,WUHU216HW,2013-03-28 05:05:00,
2013-03-27 22:10:00,45.7,40.2,29.61,North,0,0.0,0.0,81,0.00,,,0.04,WUHU216HW,2013-03-28 05:10:00,
2013-03-27 22:15:00,45.5,40.1,29.62,North,0,0.0,0.0,81,0.00,,,0.04,WUHU216HW,2013-03-28 05:15:00,
2013-03-27 22:20:00,45.4,40.2,29.62,North,0,0.0,0.0,82,0.00,,,0.04,WUHU216HW,2013-03-28 05:20:00,
2013-03-27 22:25:00,45.2,40.1,29.62,North,0,0.0,0.0,82,0.00,,,0.04,WUHU216HW,2013-03-28 05:25:00,
2013-03-27 22:30:00,45.0,39.9,29.62,North,0,0.0,0.0,82,0.00,,,0.04,WUHU216HW,2013-03-28 05:30:00,
2013-03-27 22:35:00,44.8,39.7,29.62,North,0,0.0,0.0,82,0.00,,,0.04,WUHU216HW,2013-03-28 05:35:00,
2013-03-27 22:40:00,44.5,39.3,29.62,North,0,0.0,0.0,82,0.00,,,0.04,WUHU216HW,2013-03-28 05:40:00,
2013-03-27 22:45:00,44.5,39.3,29.62,North,0,0.0,0.0,82,0.00,,,0.04,WUHU216HW,2013-03-28 05:45:00,
2013-03-27 22:50:00,44.1,39.0,29.62,North,0,0.0,0.0,82,0.00,,,0.04,WUHU216HW,2013-03-28 05:50:00,
2013-03-27 22:55:00,44.1,39.2,29.62,North,0,0.0,0.0,83,0.00,,,0.04,WUHU216HW,2013-03-28 05:55:00,
2013-03-27 23:00:00,43.7,38.9,29.63,North,0,0.0,0.0,83,0.00,,,0.04,WUHU216HW,2013-03-28 06:00:00,
2013-03-27 23:05:00,43.6,38.7,29.62,North,0,0.0,0.0,83,0.00,,,0.04,WUHU216HW,2013-03-28 06:05:00,
2013-03-27 23:10:00,43.4,38.5,29.62,North,0,0.0,0.0,83,0.00,,,0.04,WUHU216HW,2013-03-28 06:10:00,
2013-03-27 23:15:00,43.2,38.3,29.62,North,0,0.0,0.0,83,0.00,,,0.04,WUHU216HW,2013-03-28 06:15:00,
2013-03-27 23:20:00,43.0,38.2,29.63,North,0,0.0,0.0,83,0.00,,,0.04,WUHU216HW,2013-03-28 06:20:00,
2013-03-27 23:25:00,43.0,38.2,29.62,North,0,0.0,0.0,83,0.00,,,0.04,WUHU216HW,2013-03-28 06:25:00,
2013-03-27 23:30:00,42.8,38.0,29.62,North,0,0.0,0.0,83,0.00,,,0.04,WUHU216HW,2013-03-28 06:30:00,
2013-03-27 23:35:00,42.7,38.2,29.62,North,0,0.0,0.0,84,0.00,,,0.04,WUHU216HW,2013-03-28 06:35:00,
2013-03-27 23:40:00,42.5,38.0,29.62,North,0,0.0,0.0,84,0.00,,,0.04,WUHU216HW,2013-03-28 06:40:00,
2013-03-27 23:45:00,42.1,37.6,29.62,North,0,0.0,0.0,84,0.00,,,0.04,WUHU216HW,2013-03-28 06:45:00,
2013-03-27 23:50:00,41.8,37.5,29.63,North,0,0.0,0.0,85,0.00,,,0.04,WUHU216HW,2013-03-28 06:50:00,
2013-03-27 23:55:00,41.8,37.3,29.63,North,0,0.0,0.0,84,0.00,,,0.04,WUHU216HW,2013-03-28 06:55:00,